createdAt,value
2018-12-01T00:02:18.874Z,84.70
2018-12-01T00:04:47.108Z,84.70
2018-12-01T00:07:15.352Z,84.70
2018-12-01T00:09:43.856Z,84.80
2018-12-01T00:12:12.084Z,84.70
2018-12-01T00:14:40.341Z,84.80
2018-12-01T00:17:08.580Z,84.70
2018-12-01T00:19:36.839Z,84.70
2018-12-01T00:22:05.368Z,84.80
2018-12-01T00:24:33.632Z,84.80
2018-12-01T00:27:01.884Z,84.60
2018-12-01T00:29:30.129Z,84.70
2018-12-01T00:31:58.384Z,84.70
2018-12-01T00:34:26.625Z,84.70
2018-12-01T00:36:54.904Z,84.70
2018-12-01T00:39:23.132Z,84.70
2018-12-01T00:41:51.392Z,84.80
2018-12-01T00:44:19.650Z,84.60
2018-12-01T00:46:47.876Z,84.70
2018-12-01T00:49:16.107Z,84.60
2018-12-01T00:51:44.359Z,84.60
2018-12-01T00:54:12.612Z,84.60
2018-12-01T00:56:40.839Z,84.60
2018-12-01T00:59:09.088Z,84.60
2018-12-01T01:01:37.340Z,84.60
2018-12-01T01:04:05.772Z,84.50
2018-12-01T01:06:34.011Z,84.50
2018-12-01T01:09:02.243Z,84.50
2018-12-01T01:11:30.505Z,84.60
2018-12-01T01:13:58.752Z,84.50
2018-12-01T01:16:27.006Z,84.50
2018-12-01T01:18:55.244Z,84.50
2018-12-01T01:21:23.525Z,84.50
2018-12-01T01:23:51.757Z,84.40
2018-12-01T01:26:20.012Z,84.30
2018-12-01T01:28:48.230Z,84.30
2018-12-01T01:31:16.512Z,84.30
2018-12-01T01:33:44.764Z,84.90
2018-12-01T01:36:12.995Z,85.10
2018-12-01T01:38:41.286Z,84.30
2018-12-01T01:41:09.519Z,85.00
2018-12-01T01:43:37.787Z,84.20
2018-12-01T01:46:06.124Z,84.30
2018-12-01T01:48:34.384Z,84.30
2018-12-01T01:51:02.627Z,84.30
2018-12-01T01:53:30.868Z,84.30
2018-12-01T01:55:59.105Z,84.30
2018-12-01T01:58:27.352Z,84.30
2018-12-01T02:00:55.904Z,84.30
2018-12-01T02:03:24.152Z,84.30
2018-12-01T02:05:52.450Z,84.20
2018-12-01T02:08:20.688Z,84.30
2018-12-01T02:10:48.927Z,84.10
2018-12-01T02:13:17.170Z,84.20
2018-12-01T02:15:45.431Z,84.30
2018-12-01T02:18:13.678Z,84.30
2018-12-01T02:20:41.927Z,84.20
2018-12-01T02:23:10.176Z,84.20
2018-12-01T02:25:38.430Z,84.70
2018-12-01T02:28:06.685Z,84.20
2018-12-01T02:30:34.939Z,84.20
2018-12-01T02:33:03.185Z,84.20
2018-12-01T02:35:31.443Z,84.10
2018-12-01T02:37:59.684Z,84.10
2018-12-01T02:40:27.953Z,84.20
2018-12-01T02:42:56.238Z,84.10
2018-12-01T02:45:35.937Z,84.20
2018-12-01T02:48:04.305Z,84.20
2018-12-01T02:50:32.528Z,84.10
2018-12-01T02:53:01.347Z,84.10
2018-12-01T02:55:29.778Z,84.10
2018-12-01T02:57:58.039Z,84.10
2018-12-01T03:00:26.287Z,84.10
2018-12-01T03:02:54.576Z,84.10
2018-12-01T03:05:23.446Z,84.10
2018-12-01T03:07:52.412Z,84.10
2018-12-01T03:10:21.136Z,84.10
2018-12-01T03:12:50.180Z,84.10
2018-12-01T03:15:19.424Z,84.20
2018-12-01T03:17:48.375Z,84.30
2018-12-01T03:20:17.305Z,84.10
2018-12-01T03:22:45.647Z,84.10
2018-12-01T03:25:20.172Z,84.10
2018-12-01T03:27:49.396Z,84.10
2018-12-01T03:30:26.324Z,84.20
2018-12-01T03:32:55.313Z,84.20
2018-12-01T03:35:24.384Z,84.20
2018-12-01T03:37:52.771Z,84.10
2018-12-01T03:40:21.671Z,84.10
2018-12-01T03:42:50.671Z,84.10
2018-12-01T03:45:19.836Z,84.10
2018-12-01T03:47:48.106Z,84.10
2018-12-01T03:50:20.185Z,84.10
2018-12-01T03:52:48.811Z,84.10
2018-12-01T03:55:23.447Z,84.20
2018-12-01T03:57:51.719Z,84.10
2018-12-01T04:00:24.208Z,84.10
2018-12-01T04:02:52.517Z,84.00
2018-12-01T04:05:20.768Z,84.00
2018-12-01T04:07:49.080Z,84.00
2018-12-01T04:10:17.487Z,84.00
2018-12-01T04:12:45.735Z,84.00
2018-12-01T04:15:14.033Z,84.00
2018-12-01T04:17:42.356Z,83.90
2018-12-01T04:20:10.611Z,84.00
2018-12-01T04:22:38.916Z,83.90
2018-12-01T04:25:08.127Z,84.00
2018-12-01T04:27:36.459Z,83.90
2018-12-01T04:30:22.404Z,83.60
2018-12-01T04:32:50.697Z,84.00
2018-12-01T04:35:19.976Z,84.00
2018-12-01T04:37:51.013Z,83.90
2018-12-01T04:40:19.304Z,84.00
2018-12-01T04:42:48.094Z,83.90
2018-12-01T04:45:16.881Z,83.90
2018-12-01T04:47:45.383Z,83.90
2018-12-01T04:50:14.668Z,83.80
2018-12-01T04:52:43.263Z,83.90
2018-12-01T04:55:12.643Z,83.90
2018-12-01T04:57:40.959Z,83.90
2018-12-01T05:00:12.932Z,83.90
2018-12-01T05:02:41.260Z,84.00
2018-12-01T05:05:10.864Z,83.90
2018-12-01T05:07:39.232Z,83.90
2018-12-01T05:10:09.090Z,84.00
2018-12-01T05:12:37.406Z,83.90
2018-12-01T05:15:09.613Z,84.00
2018-12-01T05:17:37.892Z,83.90
2018-12-01T05:20:08.744Z,83.90
2018-12-01T05:22:37.046Z,84.70
2018-12-01T05:25:07.228Z,83.90
2018-12-01T05:27:35.504Z,83.90
2018-12-01T05:30:03.869Z,84.00
2018-12-01T05:32:32.151Z,84.00
2018-12-01T05:35:00.437Z,84.00
2018-12-01T05:37:28.739Z,83.90
2018-12-01T05:39:57.596Z,83.90
2018-12-01T05:42:25.884Z,83.90
2018-12-01T05:44:54.136Z,83.80
2018-12-01T05:47:22.447Z,83.90
2018-12-01T05:49:50.729Z,83.90
2018-12-01T05:52:19.047Z,83.90
2018-12-01T05:54:47.309Z,83.90
2018-12-01T05:57:15.617Z,84.00
2018-12-01T05:59:43.904Z,84.00
2018-12-01T06:02:12.203Z,84.00
2018-12-01T06:04:40.484Z,84.00
2018-12-01T06:07:08.791Z,83.90
2018-12-01T06:09:37.300Z,83.80
2018-12-01T06:12:05.715Z,83.70
2018-12-01T06:14:33.999Z,83.80
2018-12-01T06:17:02.289Z,84.00
2018-12-01T06:19:30.537Z,83.90
2018-12-01T06:21:58.821Z,83.90
2018-12-01T06:24:27.119Z,83.90
2018-12-01T06:26:55.411Z,83.90
2018-12-01T06:29:23.716Z,83.90
2018-12-01T06:31:51.976Z,84.00
2018-12-01T06:34:20.258Z,84.00
2018-12-01T06:36:48.542Z,83.40
2018-12-01T06:39:16.815Z,84.20
2018-12-01T06:41:45.071Z,84.00
2018-12-01T06:44:14.647Z,84.10
2018-12-01T06:46:43.348Z,84.00
2018-12-01T06:49:12.731Z,83.30
2018-12-01T06:51:42.360Z,82.90
2018-12-01T06:54:11.651Z,83.20
2018-12-01T06:56:47.158Z,83.30
2018-12-01T06:59:15.449Z,83.40
2018-12-01T07:01:46.376Z,83.40
2018-12-01T07:04:14.674Z,83.60
2018-12-01T07:06:43.588Z,83.50
2018-12-01T07:09:12.238Z,83.50
2018-12-01T07:11:41.795Z,83.60
2018-12-01T07:14:10.091Z,83.70
2018-12-01T07:16:40.949Z,83.70
2018-12-01T07:19:17.714Z,83.70
2018-12-01T07:21:46.284Z,83.70
2018-12-01T07:24:14.708Z,83.80
2018-12-01T07:26:43.097Z,83.70
2018-12-01T07:29:12.858Z,83.70
2018-12-01T07:31:41.176Z,83.70
2018-12-01T07:34:09.504Z,83.70
2018-12-01T07:36:37.787Z,83.70
2018-12-01T07:39:08.702Z,83.80
2018-12-01T07:41:37.189Z,84.30
2018-12-01T07:44:05.960Z,83.90
2018-12-01T07:46:34.301Z,83.90
2018-12-01T07:49:03.776Z,83.80
2018-12-01T07:51:32.094Z,83.90
2018-12-01T07:54:00.449Z,83.80
2018-12-01T07:56:28.780Z,83.80
2018-12-01T07:58:57.069Z,83.70
2018-12-01T08:01:25.404Z,83.80
2018-12-01T08:03:53.674Z,83.80
2018-12-01T08:06:21.944Z,84.50
2018-12-01T08:08:50.278Z,83.70
2018-12-01T08:11:18.555Z,83.70
2018-12-01T08:13:46.810Z,83.60
2018-12-01T08:16:15.076Z,83.60
2018-12-01T08:18:43.368Z,83.50
2018-12-01T08:21:11.644Z,83.50
2018-12-01T08:23:39.991Z,83.50
2018-12-01T08:26:08.289Z,83.50
2018-12-01T08:28:36.583Z,83.50
2018-12-01T08:31:04.872Z,83.50
2018-12-01T08:33:33.144Z,83.30
2018-12-01T08:36:01.444Z,83.30
2018-12-01T08:38:29.750Z,83.20
2018-12-01T08:40:58.010Z,83.20
2018-12-01T08:43:26.305Z,83.30
2018-12-01T08:45:54.627Z,83.10
2018-12-01T08:48:22.923Z,83.20
2018-12-01T08:50:55.407Z,83.20
2018-12-01T08:53:23.958Z,83.20
2018-12-01T08:55:52.269Z,83.20
2018-12-01T08:58:20.640Z,83.20
2018-12-01T09:00:49.062Z,83.20
2018-12-01T09:03:18.934Z,83.20
2018-12-01T09:05:47.652Z,83.20
2018-12-01T09:08:15.989Z,83.80
2018-12-01T09:10:44.348Z,83.20
2018-12-01T09:13:12.659Z,83.20
2018-12-01T09:15:40.991Z,83.20
2018-12-01T09:18:09.291Z,83.10
2018-12-01T09:20:37.654Z,83.00
2018-12-01T09:23:06.260Z,82.80
2018-12-01T09:25:34.544Z,82.70
2018-12-01T09:28:02.814Z,82.80
2018-12-01T09:30:32.351Z,82.90
2018-12-01T09:33:00.611Z,82.90
2018-12-01T09:35:28.912Z,82.90
2018-12-01T09:37:57.202Z,82.80
2018-12-01T09:40:25.509Z,82.90
2018-12-01T09:42:53.767Z,83.10
2018-12-01T09:45:25.664Z,83.40
2018-12-01T09:47:55.089Z,83.10
2018-12-01T09:50:23.348Z,83.80
2018-12-01T09:52:54.928Z,84.10
2018-12-01T09:55:30.403Z,84.40
2018-12-01T09:57:59.197Z,84.50
2018-12-01T10:00:28.641Z,84.70
2018-12-01T10:02:57.038Z,84.90
2018-12-01T10:05:25.365Z,85.00
2018-12-01T10:07:53.687Z,84.70
2018-12-01T10:10:22.900Z,85.50
2018-12-01T10:12:52.316Z,84.60
2018-12-01T10:15:23.877Z,84.60
2018-12-01T10:17:51.557Z,84.20
2018-12-01T10:20:23.156Z,83.80
2018-12-01T10:22:51.460Z,84.20
2018-12-01T10:25:19.729Z,84.80
2018-12-01T10:27:48.206Z,84.90
2018-12-01T10:30:17.776Z,84.90
2018-12-01T10:32:46.376Z,84.70
2018-12-01T10:35:16.711Z,84.50
2018-12-01T10:37:46.654Z,84.60
2018-12-01T10:40:14.916Z,83.80
2018-12-01T10:42:43.226Z,84.30
2018-12-01T10:45:14.678Z,84.40
2018-12-01T10:47:43.493Z,84.30
2018-12-01T10:50:12.936Z,84.00
2018-12-01T10:52:41.212Z,84.10
2018-12-01T10:55:18.799Z,84.00
2018-12-01T10:57:47.076Z,84.00
2018-12-01T11:00:20.649Z,83.70
2018-12-01T11:02:55.769Z,83.70
2018-12-01T11:05:22.636Z,83.70
2018-12-01T11:07:50.920Z,83.70
2018-12-01T11:10:19.231Z,83.30
2018-12-01T11:12:47.546Z,83.30
2018-12-01T11:15:16.313Z,83.30
2018-12-01T11:17:45.513Z,83.10
2018-12-01T11:20:13.849Z,83.20
2018-12-01T11:22:42.107Z,83.10
2018-12-01T11:25:11.468Z,83.00
2018-12-01T11:27:39.874Z,82.80
2018-12-01T11:30:24.017Z,82.60
2018-12-01T11:32:52.381Z,82.40
2018-12-01T11:35:20.797Z,82.60
2018-12-01T11:37:49.116Z,82.30
2018-12-01T11:40:18.329Z,81.80
2018-12-01T11:42:47.344Z,82.10
2018-12-01T11:45:16.384Z,82.10
2018-12-01T11:47:44.681Z,82.00
2018-12-01T11:50:14.928Z,81.90
2018-12-01T11:52:43.410Z,81.50
2018-12-01T11:55:12.852Z,81.10
2018-12-01T11:57:41.166Z,81.10
2018-12-01T12:00:12.773Z,81.40
2018-12-01T12:02:41.064Z,81.40
2018-12-01T12:05:10.424Z,81.10
2018-12-01T12:07:50.044Z,80.70
2018-12-01T12:10:18.779Z,80.40
2018-12-01T12:12:47.199Z,80.30
2018-12-01T12:15:15.477Z,80.40
2018-12-01T12:17:47.003Z,80.10
2018-12-01T12:20:15.403Z,80.20
2018-12-01T12:22:44.093Z,80.10
2018-12-01T12:25:12.402Z,79.80
2018-12-01T12:27:40.803Z,79.50
2018-12-01T12:30:13.157Z,79.80
2018-12-01T12:32:41.627Z,80.40
2018-12-01T12:35:12.898Z,79.60
2018-12-01T12:37:41.296Z,79.00
2018-12-01T12:40:13.016Z,78.90
2018-12-01T12:42:42.103Z,79.10
2018-12-01T12:45:11.888Z,79.00
2018-12-01T12:47:40.629Z,78.90
2018-12-01T12:50:11.956Z,79.00
2018-12-01T12:52:40.402Z,78.80
2018-12-01T12:55:10.011Z,78.70
2018-12-01T12:57:38.540Z,79.10
2018-12-01T13:00:12.953Z,78.50
2018-12-01T13:02:41.802Z,78.50
2018-12-01T13:05:12.309Z,78.60
2018-12-01T13:07:40.588Z,78.50
2018-12-01T13:10:10.473Z,78.40
2018-12-01T13:12:38.740Z,78.60
2018-12-01T13:15:08.768Z,78.60
2018-12-01T13:17:37.067Z,78.40
2018-12-01T13:20:09.991Z,78.30
2018-12-01T13:22:38.268Z,78.30
2018-12-01T13:25:08.800Z,78.30
2018-12-01T13:27:37.108Z,78.20
2018-12-01T13:30:13.912Z,78.30
2018-12-01T13:32:42.336Z,78.30
2018-12-01T13:35:10.944Z,78.00
2018-12-01T13:37:39.232Z,78.20
2018-12-01T13:40:12.629Z,78.00
2018-12-01T13:42:41.069Z,78.00
2018-12-01T13:45:12.519Z,77.90
2018-12-01T13:47:41.000Z,78.00
2018-12-01T13:50:14.145Z,78.10
2018-12-01T13:52:43.548Z,77.90
2018-12-01T13:55:11.968Z,78.00
2018-12-01T13:57:40.372Z,77.60
2018-12-01T14:00:13.489Z,78.00
2018-12-01T14:02:41.820Z,78.10
2018-12-01T14:05:10.901Z,77.80
2018-12-01T14:07:39.184Z,78.00
2018-12-01T14:10:26.453Z,78.80
2018-12-01T14:12:58.901Z,78.40
2018-12-01T14:15:27.178Z,77.90
2018-12-01T14:17:55.552Z,77.80
2018-12-01T14:20:23.840Z,78.00
2018-12-01T14:22:52.358Z,78.00
2018-12-01T14:25:21.469Z,78.10
2018-12-01T14:28:08.977Z,78.20
2018-12-01T14:30:37.295Z,78.20
2018-12-01T14:33:06.208Z,78.30
2018-12-01T14:35:36.559Z,78.10
2018-12-01T14:38:11.916Z,78.40
2018-12-01T14:40:41.448Z,78.40
2018-12-01T14:43:09.736Z,78.50
2018-12-01T14:45:38.372Z,78.60
2018-12-01T14:48:07.276Z,78.50
2018-12-01T14:50:35.580Z,78.20
2018-12-01T14:53:03.936Z,78.50
2018-12-01T14:55:32.212Z,78.60
2018-12-01T14:58:00.505Z,78.30
2018-12-01T15:00:28.798Z,78.60
2018-12-01T15:02:57.134Z,78.50
2018-12-01T15:05:26.171Z,78.60
2018-12-01T15:07:54.432Z,78.60
2018-12-01T15:10:24.786Z,78.00
2018-12-01T15:12:53.176Z,78.10
2018-12-01T15:15:23.609Z,78.40
2018-12-01T15:17:51.904Z,78.60
2018-12-01T15:20:21.203Z,78.50
2018-12-01T15:22:53.676Z,78.60
2018-12-01T15:25:23.853Z,79.40
2018-12-01T15:27:53.121Z,78.50
2018-12-01T15:30:24.291Z,78.40
2018-12-01T15:33:23.701Z,78.60
2018-12-01T15:35:51.992Z,78.40
2018-12-01T15:38:20.261Z,78.40
2018-12-01T15:40:50.123Z,78.60
2018-12-01T15:43:18.452Z,78.50
2018-12-01T15:45:46.780Z,78.60
2018-12-01T15:48:15.059Z,78.70
2018-12-01T15:50:43.373Z,78.70
2018-12-01T15:53:12.742Z,78.70
2018-12-01T15:55:41.087Z,78.60
2018-12-01T15:58:09.552Z,78.60
2018-12-01T16:00:38.528Z,78.60
2018-12-01T16:03:07.123Z,78.70
2018-12-01T16:05:35.420Z,78.70
2018-12-01T16:08:03.780Z,78.80
2018-12-01T16:10:32.077Z,79.60
2018-12-01T16:13:17.329Z,78.90
2018-12-01T16:15:48.273Z,78.90
2018-12-01T16:18:16.544Z,78.90
2018-12-01T16:20:44.792Z,78.90
2018-12-01T16:23:13.091Z,79.00
2018-12-01T16:25:41.703Z,79.10
2018-12-01T16:28:10.053Z,79.10
2018-12-01T16:30:42.664Z,79.10
2018-12-01T16:33:12.883Z,79.10
2018-12-01T16:35:41.184Z,79.20
2018-12-01T16:38:11.624Z,79.20
2018-12-01T16:40:48.159Z,79.10
2018-12-01T16:43:16.841Z,79.10
2018-12-01T16:45:46.406Z,79.20
2018-12-01T16:48:14.721Z,79.00
2018-12-01T16:50:42.999Z,79.10
2018-12-01T16:53:12.838Z,79.10
2018-12-01T16:55:41.122Z,79.30
2018-12-01T16:58:09.408Z,79.40
2018-12-01T17:00:37.687Z,79.40
2018-12-01T17:03:06.401Z,79.40
2018-12-01T17:05:36.311Z,79.30
2018-12-01T17:08:04.599Z,79.50
2018-12-01T17:10:32.917Z,79.50
2018-12-01T17:13:01.217Z,79.60
2018-12-01T17:15:29.492Z,79.60
2018-12-01T17:17:57.799Z,79.70
2018-12-01T17:20:26.044Z,79.80
2018-12-01T17:22:55.805Z,79.90
2018-12-01T17:25:24.087Z,79.80
2018-12-01T17:27:53.364Z,79.90
2018-12-01T17:30:23.928Z,79.90
2018-12-01T17:32:52.788Z,79.90
2018-12-01T17:35:25.043Z,79.70
2018-12-01T17:37:54.716Z,79.50
2018-12-01T17:40:27.077Z,79.70
2018-12-01T17:42:56.790Z,79.70
2018-12-01T17:45:25.157Z,79.80
2018-12-01T17:47:53.542Z,79.90
2018-12-01T17:50:21.976Z,79.90
2018-12-01T17:52:53.316Z,79.90
2018-12-01T17:55:22.278Z,79.80
2018-12-01T17:57:51.121Z,79.80
2018-12-01T18:00:21.524Z,79.70
2018-12-01T18:02:51.124Z,79.70
2018-12-01T18:05:22.495Z,79.80
2018-12-01T18:07:52.013Z,79.90
2018-12-01T18:10:19.141Z,79.80
2018-12-01T18:12:47.799Z,79.90
2018-12-01T18:15:17.636Z,79.80
2018-12-01T18:17:46.278Z,79.70
2018-12-01T18:20:21.140Z,79.30
2018-12-01T18:22:51.224Z,78.90
2018-12-01T18:25:19.631Z,78.50
2018-12-01T18:27:48.911Z,78.30
2018-12-01T18:30:36.512Z,78.00
2018-12-01T18:33:22.806Z,77.80
2018-12-01T18:35:51.951Z,77.50
2018-12-01T18:38:20.254Z,77.40
2018-12-01T18:40:48.639Z,77.10
2018-12-01T18:43:17.045Z,77.00
2018-12-01T18:45:47.508Z,76.80
2018-12-01T18:48:16.084Z,76.60
2018-12-01T18:50:44.694Z,76.70
2018-12-01T18:53:12.972Z,76.50
2018-12-01T18:55:44.463Z,76.40
2018-12-01T18:58:12.798Z,76.20
2018-12-01T19:00:57.175Z,76.20
2018-12-01T19:03:28.988Z,76.20
2018-12-01T19:05:57.335Z,76.20
2018-12-01T19:08:25.674Z,76.20
2018-12-01T19:10:54.919Z,75.90
2018-12-01T19:13:23.175Z,76.00
2018-12-01T19:15:51.480Z,75.80
2018-12-01T19:18:19.752Z,75.80
2018-12-01T19:20:48.048Z,75.60
2018-12-01T19:23:17.280Z,75.70
2018-12-01T19:25:47.028Z,75.60
2018-12-01T19:28:15.348Z,75.50
2018-12-01T19:30:43.645Z,75.10
2018-12-01T19:33:15.404Z,75.30
2018-12-01T19:35:44.684Z,75.30
2018-12-01T19:38:14.538Z,75.30
2018-12-01T19:40:43.436Z,75.20
2018-12-01T19:43:11.912Z,75.00
2018-12-01T19:45:40.187Z,75.10
2018-12-01T19:48:09.485Z,75.10
2018-12-01T19:50:40.000Z,75.10
2018-12-01T19:53:10.740Z,75.10
2018-12-01T19:55:39.092Z,75.30
2018-12-01T19:58:21.648Z,75.30
2018-12-01T20:00:51.716Z,75.20
2018-12-01T20:03:21.225Z,75.10
2018-12-01T20:05:49.660Z,75.00
2018-12-01T20:08:19.012Z,75.20
2018-12-01T20:10:57.732Z,75.20
2018-12-01T20:13:28.633Z,74.90
2018-12-01T20:15:59.229Z,74.90
2018-12-01T20:18:28.264Z,74.70
2018-12-01T20:20:56.634Z,74.70
2018-12-01T20:23:25.076Z,74.90
2018-12-01T20:25:53.556Z,74.80
2018-12-01T20:28:22.040Z,74.90
2018-12-01T20:30:50.745Z,75.00
2018-12-01T20:33:19.856Z,74.90
2018-12-01T20:35:51.919Z,75.00
2018-12-01T20:38:35.852Z,75.00
2018-12-01T20:41:04.163Z,74.80
2018-12-01T20:43:32.453Z,75.00
2018-12-01T20:46:00.763Z,75.70
2018-12-01T20:48:29.070Z,75.10
2018-12-01T20:50:57.332Z,74.90
2018-12-01T20:53:25.621Z,74.90
2018-12-01T20:55:56.672Z,74.80
2018-12-01T20:58:28.312Z,74.80
2018-12-01T21:00:56.624Z,74.30
2018-12-01T21:03:24.920Z,74.30
2018-12-01T21:05:53.232Z,74.50
2018-12-01T21:08:27.571Z,74.60
2018-12-01T21:10:56.972Z,74.50
2018-12-01T21:13:25.565Z,74.50
2018-12-01T21:15:53.816Z,74.70
2018-12-01T21:18:22.108Z,74.60
2018-12-01T21:20:50.424Z,74.50
2018-12-01T21:23:18.719Z,74.60
2018-12-01T21:25:46.976Z,74.70
2018-12-01T21:28:15.507Z,74.50
2018-12-01T21:30:44.857Z,74.40
2018-12-01T21:33:15.176Z,74.50
2018-12-01T21:35:43.680Z,74.40
2018-12-01T21:38:13.470Z,74.10
2018-12-01T21:40:42.312Z,75.20
2018-12-01T21:43:11.008Z,74.40
2018-12-01T21:45:39.263Z,74.30
2018-12-01T21:48:10.276Z,74.10
2018-12-01T21:50:39.396Z,74.30
2018-12-01T21:53:10.842Z,74.40
2018-12-01T21:55:39.108Z,74.30
2018-12-01T21:58:07.633Z,74.30
2018-12-01T22:00:36.484Z,74.30
2018-12-01T22:03:08.268Z,74.30
2018-12-01T22:05:39.557Z,73.70
2018-12-01T22:08:09.353Z,74.10
2018-12-01T22:10:37.644Z,74.00
2018-12-01T22:13:06.239Z,74.10
2018-12-01T22:15:34.493Z,74.10
2018-12-01T22:18:02.801Z,73.80
2018-12-01T22:20:31.128Z,74.00
2018-12-01T22:22:59.461Z,74.10
2018-12-01T22:25:27.712Z,74.80
2018-12-01T22:27:56.005Z,73.80
2018-12-01T22:30:24.280Z,73.80
2018-12-01T22:32:53.928Z,73.90
2018-12-01T22:35:23.461Z,73.90
2018-12-01T22:37:52.382Z,74.10
2018-12-01T22:40:22.824Z,73.90
2018-12-01T22:42:52.559Z,74.10
2018-12-01T22:45:20.822Z,74.00
2018-12-01T22:47:49.093Z,74.00
2018-12-01T22:50:21.265Z,73.90
2018-12-01T22:52:50.187Z,74.00
2018-12-01T22:55:20.609Z,74.30
2018-12-01T22:57:58.461Z,74.00
2018-12-01T23:00:36.165Z,74.00
2018-12-01T23:03:04.929Z,74.00
2018-12-01T23:05:33.185Z,74.00
2018-12-01T23:08:01.468Z,73.80
2018-12-01T23:10:29.717Z,73.70
2018-12-01T23:12:58.027Z,74.00
2018-12-01T23:15:26.298Z,73.90
2018-12-01T23:17:54.536Z,73.90
2018-12-01T23:20:23.072Z,74.00
2018-12-01T23:22:51.658Z,74.00
2018-12-01T23:25:19.971Z,73.90
2018-12-01T23:27:48.280Z,74.00
2018-12-01T23:30:18.299Z,73.70
2018-12-01T23:32:49.120Z,73.90
2018-12-01T23:35:17.393Z,73.80
2018-12-01T23:37:45.676Z,73.80
2018-12-01T23:40:14.165Z,73.80
2018-12-01T23:42:42.478Z,74.00
2018-12-01T23:45:12.247Z,73.90
2018-12-01T23:47:40.503Z,74.30
2018-12-01T23:50:11.787Z,74.00
2018-12-01T23:52:40.123Z,73.80
2018-12-01T23:55:10.773Z,74.00
2018-12-01T23:57:39.050Z,73.90
